createdAt,value
2022-11-22T00:00:51.011Z,5.93
2022-11-22T00:03:20.025Z,5.92
2022-11-22T00:05:49.628Z,5.92
2022-11-22T00:08:20.908Z,5.87
2022-11-22T00:10:54.724Z,5.84
2022-11-22T00:13:23.962Z,5.88
2022-11-22T00:16:01.569Z,5.88
2022-11-22T00:18:29.157Z,5.89
2022-11-22T00:21:06.715Z,5.84
2022-11-22T00:23:38.001Z,5.85
2022-11-22T00:26:04.651Z,5.87
2022-11-22T00:28:31.192Z,5.84
2022-11-22T00:30:57.689Z,5.85
2022-11-22T00:33:24.184Z,5.83
2022-11-22T00:35:50.648Z,5.82
2022-11-22T00:38:17.149Z,5.82
2022-11-22T00:40:43.850Z,5.83
2022-11-22T00:43:13.369Z,5.86
2022-11-22T00:45:43.038Z,5.88
2022-11-22T00:48:11.839Z,5.88
2022-11-22T00:50:39.055Z,5.86
2022-11-22T00:53:10.401Z,5.88
2022-11-22T00:55:41.688Z,5.93
2022-11-22T00:58:08.252Z,5.93
2022-11-22T01:00:37.515Z,5.93
2022-11-22T01:03:06.316Z,5.96
2022-11-22T01:05:35.269Z,5.96
2022-11-22T01:08:01.781Z,5.92
2022-11-22T01:10:28.277Z,5.91
2022-11-22T01:12:54.977Z,5.91
2022-11-22T01:15:21.584Z,5.91
2022-11-22T01:17:48.194Z,5.91
2022-11-22T01:20:14.748Z,5.88
2022-11-22T01:22:41.291Z,5.92
2022-11-22T01:25:08.410Z,5.93
2022-11-22T01:27:34.943Z,5.95
2022-11-22T01:30:07.491Z,5.96
2022-11-22T01:32:34.078Z,5.97
2022-11-22T01:35:00.611Z,5.96
2022-11-22T01:37:29.395Z,5.96
2022-11-22T01:39:55.906Z,5.97
2022-11-22T01:42:24.705Z,5.96
2022-11-22T01:44:51.272Z,5.96
2022-11-22T01:47:23.948Z,5.98
2022-11-22T01:50:04.850Z,5.94
2022-11-22T01:52:35.217Z,5.97
2022-11-22T01:55:11.813Z,6.00
2022-11-22T01:57:41.144Z,6.02
2022-11-22T02:00:16.507Z,6.02
2022-11-22T02:02:46.156Z,6.03
2022-11-22T02:05:17.896Z,6.07
2022-11-22T02:07:50.621Z,6.04
2022-11-22T02:10:20.659Z,6.03
2022-11-22T02:12:53.311Z,5.99
2022-11-22T02:15:22.174Z,5.97
2022-11-22T02:17:48.727Z,6.00
2022-11-22T02:20:17.250Z,6.02
2022-11-22T02:22:50.550Z,6.01
2022-11-22T02:25:32.093Z,6.02
2022-11-22T02:27:59.103Z,6.04
2022-11-22T02:30:27.898Z,6.05
2022-11-22T02:32:54.508Z,6.02
2022-11-22T02:35:21.021Z,6.02
2022-11-22T02:37:49.127Z,5.98
2022-11-22T02:40:19.388Z,5.98
2022-11-22T02:42:53.778Z,5.98
2022-11-22T02:45:20.294Z,5.97
2022-11-22T02:47:46.916Z,5.99
2022-11-22T02:50:13.744Z,5.97
2022-11-22T02:52:43.400Z,5.94
2022-11-22T02:55:12.250Z,5.95
2022-11-22T02:57:38.753Z,5.93
2022-11-22T03:00:05.997Z,5.96
2022-11-22T03:02:34.888Z,5.95
2022-11-22T03:05:01.419Z,5.94
2022-11-22T03:07:27.981Z,5.98
2022-11-22T03:09:54.561Z,5.96
2022-11-22T03:12:23.843Z,5.97
2022-11-22T03:14:50.354Z,5.94
2022-11-22T03:17:19.467Z,5.88
2022-11-22T03:19:45.960Z,5.88
2022-11-22T03:22:16.240Z,5.91
2022-11-22T03:24:42.715Z,5.95
2022-11-22T03:27:13.812Z,5.96
2022-11-22T03:29:42.832Z,5.96
2022-11-22T03:32:09.344Z,5.92
2022-11-22T03:34:35.884Z,5.86
2022-11-22T03:37:02.723Z,5.91
2022-11-22T03:39:29.476Z,5.95
2022-11-22T03:41:58.475Z,6.03
2022-11-22T03:44:25.117Z,6.08
2022-11-22T03:46:51.658Z,6.11
2022-11-22T03:49:20.458Z,6.13
2022-11-22T03:51:49.302Z,6.13
2022-11-22T03:54:20.554Z,6.11
2022-11-22T03:56:47.070Z,6.08
2022-11-22T03:59:18.350Z,6.03
2022-11-22T04:01:47.129Z,6.04
2022-11-22T04:04:15.934Z,6.02
2022-11-22T04:06:44.714Z,6.06
2022-11-22T04:09:13.701Z,6.10
2022-11-22T04:11:40.182Z,6.07
2022-11-22T04:14:32.076Z,6.09
2022-11-22T04:17:01.094Z,6.10
2022-11-22T04:19:30.094Z,6.13
2022-11-22T04:21:56.888Z,6.14
2022-11-22T04:24:44.629Z,6.16
2022-11-22T04:27:13.421Z,6.17
2022-11-22T04:29:42.438Z,6.18
2022-11-22T04:32:30.297Z,6.20
2022-11-22T04:34:59.291Z,6.19
2022-11-22T04:37:27.994Z,6.17
2022-11-22T04:39:54.501Z,6.20
2022-11-22T04:42:42.063Z,6.22
2022-11-22T04:45:12.451Z,6.18
2022-11-22T04:47:57.640Z,6.17
2022-11-22T04:50:42.731Z,6.17
2022-11-22T04:53:09.371Z,6.19
2022-11-22T04:55:36.084Z,6.19
2022-11-22T04:58:02.762Z,6.19
2022-11-22T05:00:30.198Z,6.20
2022-11-22T05:02:57.520Z,6.18
2022-11-22T05:05:25.316Z,6.22
2022-11-22T05:07:56.646Z,6.22
2022-11-22T05:10:27.128Z,6.19
2022-11-22T05:12:56.854Z,6.19
2022-11-22T05:15:25.713Z,6.19
2022-11-22T05:17:52.288Z,6.15
2022-11-22T05:20:21.221Z,6.15
2022-11-22T05:23:06.282Z,6.13
2022-11-22T05:25:37.313Z,6.15
2022-11-22T05:28:06.084Z,6.13
2022-11-22T05:30:32.608Z,6.12
2022-11-22T05:33:01.502Z,6.10
2022-11-22T05:35:30.321Z,6.11
2022-11-22T05:38:00.099Z,6.13
2022-11-22T05:40:26.906Z,6.12
2022-11-22T05:42:57.113Z,6.14
2022-11-22T05:45:26.090Z,6.15
2022-11-22T05:47:55.642Z,6.11
2022-11-22T05:50:22.546Z,6.11
2022-11-22T05:52:51.476Z,6.11
2022-11-22T05:55:17.989Z,6.12
2022-11-22T05:57:46.744Z,6.09
2022-11-22T06:00:15.740Z,6.08
2022-11-22T06:02:42.318Z,6.07
2022-11-22T06:05:09.102Z,6.06
2022-11-22T06:07:38.135Z,6.08
2022-11-22T06:10:07.224Z,6.06
2022-11-22T06:12:33.762Z,6.08
2022-11-22T06:15:00.301Z,6.06
2022-11-22T06:17:26.810Z,6.06
2022-11-22T06:19:55.568Z,6.06
2022-11-22T06:22:22.071Z,6.02
2022-11-22T06:24:48.615Z,6.03
2022-11-22T06:27:15.147Z,6.02
2022-11-22T06:29:43.963Z,5.95
2022-11-22T06:32:10.478Z,5.97
2022-11-22T06:34:39.392Z,5.93
2022-11-22T06:37:08.470Z,5.94
2022-11-22T06:39:35.222Z,5.99
2022-11-22T06:42:01.793Z,5.96
2022-11-22T06:44:28.291Z,5.97
2022-11-22T06:46:57.151Z,5.97
2022-11-22T06:49:23.678Z,5.93
2022-11-22T06:51:52.521Z,5.96
2022-11-22T06:54:19.052Z,5.93
2022-11-22T06:56:45.619Z,5.94
2022-11-22T06:59:14.277Z,5.93
2022-11-22T07:01:40.825Z,5.95
2022-11-22T07:04:07.879Z,5.91
2022-11-22T07:06:38.772Z,5.92
2022-11-22T07:09:11.118Z,5.87
2022-11-22T07:11:38.332Z,5.88
2022-11-22T07:14:08.728Z,5.85
2022-11-22T07:16:38.712Z,5.79
2022-11-22T07:19:08.790Z,5.78
2022-11-22T07:21:37.347Z,5.81
2022-11-22T07:24:05.976Z,5.85
2022-11-22T07:26:32.556Z,5.83
2022-11-22T07:29:02.118Z,5.85
2022-11-22T07:31:34.805Z,5.89
2022-11-22T07:34:03.493Z,5.92
2022-11-22T07:36:34.955Z,5.95
2022-11-22T07:39:04.817Z,5.94
2022-11-22T07:41:31.386Z,5.99
2022-11-22T07:43:57.943Z,5.98
2022-11-22T07:46:29.941Z,6.01
2022-11-22T07:48:57.504Z,6.04
2022-11-22T07:51:29.295Z,6.09
2022-11-22T07:53:59.328Z,6.04
2022-11-22T07:56:25.949Z,6.08
2022-11-22T07:58:53.186Z,6.07
2022-11-22T08:01:23.673Z,6.09
2022-11-22T08:03:50.333Z,6.11
2022-11-22T08:06:16.877Z,6.11
2022-11-22T08:08:47.924Z,6.13
2022-11-22T08:11:14.499Z,6.13
2022-11-22T08:13:41.444Z,6.14
2022-11-22T08:16:13.819Z,6.15
2022-11-22T08:18:45.987Z,6.21
2022-11-22T08:21:14.319Z,6.22
2022-11-22T08:23:44.101Z,6.24
2022-11-22T08:26:13.061Z,6.19
2022-11-22T08:28:45.278Z,6.20
2022-11-22T08:31:18.055Z,6.25
2022-11-22T08:33:47.579Z,6.24
2022-11-22T08:36:16.700Z,6.31
2022-11-22T08:38:43.326Z,6.26
2022-11-22T08:41:10.479Z,6.31
2022-11-22T08:43:39.259Z,6.36
2022-11-22T08:46:06.030Z,6.33
2022-11-22T08:48:39.927Z,6.32
2022-11-22T08:51:11.436Z,6.35
2022-11-22T08:53:45.153Z,6.41
2022-11-22T08:56:17.991Z,6.46
2022-11-22T08:58:44.660Z,6.51
2022-11-22T09:01:17.578Z,6.51
2022-11-22T09:03:45.569Z,6.62
2022-11-22T09:11:51.895Z,6.81
2022-11-22T09:14:20.910Z,6.76
2022-11-22T09:16:47.443Z,6.78
2022-11-22T09:19:18.482Z,6.72
2022-11-22T09:21:47.294Z,6.73
2022-11-22T09:24:16.072Z,6.75
2022-11-22T09:26:42.560Z,6.81
2022-11-22T09:29:11.390Z,6.82
2022-11-22T09:31:37.958Z,6.93
2022-11-22T09:34:06.727Z,6.95
2022-11-22T09:36:33.413Z,6.98
2022-11-22T09:39:02.189Z,7.10
2022-11-22T09:41:40.212Z,7.11
2022-11-22T09:44:32.276Z,7.08
2022-11-22T09:47:20.990Z,7.14
2022-11-22T09:49:59.613Z,7.19
2022-11-22T09:53:16.767Z,7.16
2022-11-22T09:55:52.955Z,7.15
2022-11-22T09:58:43.807Z,7.33
2022-11-22T10:01:12.396Z,7.38
2022-11-22T10:03:42.006Z,7.50
2022-11-22T10:06:16.954Z,7.48
2022-11-22T10:09:03.682Z,7.45
2022-11-22T10:11:58.004Z,7.31
2022-11-22T10:14:36.540Z,7.20
2022-11-22T10:17:18.455Z,7.19
2022-11-22T10:19:58.664Z,7.32
2022-11-22T10:22:30.214Z,7.45
2022-11-22T10:25:01.870Z,7.45
2022-11-22T10:27:32.541Z,7.49
2022-11-22T10:30:06.108Z,7.40
2022-11-22T10:32:42.719Z,7.53
2022-11-22T10:35:26.665Z,7.07
2022-11-22T10:38:26.643Z,7.29
2022-11-22T10:41:24.358Z,7.37
2022-11-22T10:44:14.015Z,7.28
2022-11-22T10:47:11.953Z,7.29
2022-11-22T10:49:59.024Z,7.32
2022-11-22T10:52:36.395Z,7.27
2022-11-22T10:55:27.557Z,7.34
2022-11-22T10:58:22.962Z,7.37
2022-11-22T11:01:03.487Z,7.53
2022-11-22T11:03:41.707Z,7.58
2022-11-22T11:06:24.359Z,7.74
2022-11-22T11:10:02.844Z,7.65
2022-11-22T11:11:52.852Z,7.72
2022-11-22T11:14:31.318Z,7.58
2022-11-22T11:16:59.491Z,7.54
2022-11-22T11:19:37.134Z,7.48
2022-11-22T11:22:12.401Z,7.42
2022-11-22T11:24:43.668Z,7.46
2022-11-22T11:27:14.030Z,7.54
2022-11-22T11:29:58.841Z,7.56
2022-11-22T11:32:27.831Z,7.55
2022-11-22T11:35:00.503Z,7.50
2022-11-22T11:37:33.420Z,7.62
2022-11-22T11:40:00.246Z,7.57
2022-11-22T11:42:32.261Z,7.59
2022-11-22T11:45:29.799Z,7.81
2022-11-22T11:48:00.851Z,7.90
2022-11-22T11:50:34.658Z,7.81
2022-11-22T11:53:17.627Z,7.93
2022-11-22T11:55:46.490Z,7.74
2022-11-22T11:58:24.977Z,7.64
2022-11-22T12:00:56.254Z,7.76
2022-11-22T12:03:32.132Z,7.89
2022-11-22T12:06:14.660Z,7.62
2022-11-22T12:08:41.487Z,7.60
2022-11-22T12:11:13.753Z,7.72
2022-11-22T12:14:18.931Z,7.67
2022-11-22T12:16:44.752Z,7.63
2022-11-22T12:19:14.233Z,7.50
2022-11-22T12:22:24.268Z,7.40
2022-11-22T12:25:32.046Z,7.45
2022-11-22T12:28:10.430Z,7.57
2022-11-22T12:30:41.733Z,7.72
2022-11-22T12:33:19.059Z,7.85
2022-11-22T12:35:46.333Z,7.91
2022-11-22T12:38:18.656Z,7.82
2022-11-22T12:40:53.121Z,7.81
2022-11-22T12:43:23.191Z,7.77
2022-11-22T12:46:00.548Z,7.69
2022-11-22T12:48:37.180Z,7.63
2022-11-22T12:51:13.228Z,7.66
2022-11-22T12:53:43.685Z,7.66
2022-11-22T12:56:12.232Z,7.72
2022-11-22T12:59:02.321Z,7.68
2022-11-22T13:01:46.227Z,7.74
2022-11-22T13:04:30.442Z,7.80
2022-11-22T13:07:07.263Z,7.77
2022-11-22T13:09:43.693Z,7.82
2022-11-22T13:12:15.219Z,7.79
2022-11-22T13:14:47.550Z,7.73
2022-11-22T13:17:17.387Z,7.75
2022-11-22T13:19:49.648Z,7.78
2022-11-22T13:22:25.429Z,7.82
2022-11-22T13:25:03.177Z,7.94
2022-11-22T13:27:36.586Z,7.93
2022-11-22T13:30:06.661Z,7.92
2022-11-22T13:32:37.482Z,7.92
2022-11-22T13:35:15.586Z,7.90
2022-11-22T13:37:47.958Z,7.89
2022-11-22T13:40:26.027Z,7.92
2022-11-22T13:43:21.905Z,7.94
2022-11-22T13:46:01.332Z,7.94
2022-11-22T13:48:39.934Z,7.98
2022-11-22T13:51:14.636Z,7.91
2022-11-22T13:53:46.437Z,7.84
2022-11-22T13:56:16.094Z,7.83
2022-11-22T13:58:51.833Z,7.69
2022-11-22T14:01:36.663Z,7.56
2022-11-22T14:04:15.643Z,7.55
2022-11-22T14:07:11.465Z,7.45
2022-11-22T14:09:45.700Z,7.42
2022-11-22T14:12:46.043Z,7.31
2022-11-22T14:15:40.573Z,7.32
2022-11-22T14:18:21.416Z,7.22
2022-11-22T14:21:04.000Z,7.24
2022-11-22T14:24:06.837Z,7.27
2022-11-22T14:26:33.318Z,7.16
2022-11-22T14:29:34.627Z,7.18
2022-11-22T14:32:04.895Z,7.19
2022-11-22T14:34:33.976Z,7.15
2022-11-22T14:37:13.204Z,7.23
2022-11-22T14:39:47.257Z,7.21
2022-11-22T14:42:37.949Z,7.17
2022-11-22T14:45:10.564Z,7.16
2022-11-22T14:47:43.414Z,7.14
2022-11-22T14:50:28.799Z,7.14
2022-11-22T14:53:09.337Z,7.09
2022-11-22T14:55:36.169Z,7.08
2022-11-22T14:58:06.507Z,7.06
2022-11-22T15:00:54.906Z,7.05
2022-11-22T15:03:51.836Z,7.02
2022-11-22T15:09:20.088Z,7.00
2022-11-22T15:10:37.135Z,6.99
2022-11-22T15:13:12.352Z,6.96
2022-11-22T15:57:34.120Z,6.71
2022-11-22T16:00:30.189Z,6.70
2022-11-22T16:03:06.843Z,6.69
2022-11-22T16:06:10.076Z,6.67
2022-11-22T16:08:29.363Z,6.62
2022-11-22T16:10:59.256Z,6.67
2022-11-22T16:13:30.617Z,6.56
2022-11-22T16:16:13.297Z,6.54
2022-11-22T16:18:48.312Z,6.58
2022-11-22T16:21:25.101Z,6.57
2022-11-22T16:24:11.541Z,6.58
2022-11-22T16:26:41.921Z,6.50
2022-11-22T16:29:26.297Z,6.55
2022-11-22T16:32:04.581Z,6.55
2022-11-22T16:34:31.142Z,6.55
2022-11-22T16:36:57.988Z,6.55
2022-11-22T16:39:26.839Z,6.56
2022-11-22T16:41:55.860Z,6.54
2022-11-22T16:44:22.407Z,6.45
2022-11-22T16:46:53.470Z,6.46
2022-11-22T16:49:22.901Z,6.41
2022-11-22T16:51:53.180Z,6.37
2022-11-22T16:54:20.923Z,6.29
2022-11-22T16:56:47.494Z,6.27
2022-11-22T16:59:14.033Z,6.31
2022-11-22T17:01:42.400Z,6.36
2022-11-22T17:04:21.419Z,6.34
2022-11-22T17:06:47.945Z,6.32
2022-11-22T17:09:16.619Z,6.31
2022-11-22T17:11:44.610Z,6.22
2022-11-22T17:14:17.334Z,6.18
2022-11-22T17:16:45.945Z,6.10
2022-11-22T17:19:37.377Z,6.13
2022-11-22T17:22:00.861Z,6.15
2022-11-22T17:24:30.314Z,6.15
2022-11-22T17:26:57.008Z,6.15
2022-11-22T17:32:13.289Z,6.18
2022-11-22T17:34:42.060Z,6.18
2022-11-22T17:37:14.337Z,6.12
2022-11-22T17:39:43.493Z,6.11
2022-11-22T17:42:12.012Z,6.14
2022-11-22T17:44:38.810Z,6.16
2022-11-22T17:47:08.856Z,6.13
2022-11-22T17:49:35.548Z,6.09
2022-11-22T17:52:02.268Z,6.08
2022-11-22T17:54:28.794Z,6.08
2022-11-22T17:56:57.493Z,6.04
2022-11-22T17:59:26.629Z,6.05
2022-11-22T18:01:58.692Z,6.02
2022-11-22T18:04:25.305Z,5.99
2022-11-22T18:06:51.891Z,5.95
2022-11-22T18:09:20.667Z,5.95
2022-11-22T18:11:47.527Z,5.93
2022-11-22T18:14:14.574Z,5.89
2022-11-22T18:16:43.398Z,5.86
2022-11-22T18:19:12.512Z,5.81
2022-11-22T18:21:41.434Z,5.74
2022-11-22T18:24:10.578Z,5.69
2022-11-22T18:26:39.838Z,5.67
2022-11-22T18:32:01.057Z,5.66
2022-11-22T18:34:28.799Z,5.64
2022-11-22T18:37:01.430Z,5.64
2022-11-22T18:39:38.764Z,5.64
2022-11-22T18:42:07.921Z,5.62
2022-11-22T18:44:36.700Z,5.62
2022-11-22T18:47:08.290Z,5.58
2022-11-22T18:49:37.606Z,5.54
2022-11-22T18:52:04.522Z,5.50
2022-11-22T18:54:33.800Z,5.50
2022-11-22T18:57:00.532Z,5.49
2022-11-22T18:59:32.303Z,5.47
2022-11-22T19:02:01.058Z,5.47
2022-11-22T19:04:30.215Z,5.46
2022-11-22T19:06:57.058Z,5.46
2022-11-22T19:09:23.591Z,5.47
2022-11-22T19:11:52.602Z,5.46
2022-11-22T19:14:24.712Z,5.50
2022-11-22T19:16:51.233Z,5.52
2022-11-22T19:19:17.747Z,5.54
2022-11-22T19:21:44.286Z,5.57
2022-11-22T19:24:10.968Z,5.57
2022-11-22T19:26:37.738Z,5.56
2022-11-22T19:29:06.691Z,5.58
2022-11-22T19:31:36.645Z,5.57
2022-11-22T19:34:03.232Z,5.61
2022-11-22T19:36:33.354Z,5.61
2022-11-22T19:39:04.732Z,5.58
2022-11-22T19:41:33.838Z,5.60
2022-11-22T19:44:00.841Z,5.62
2022-11-22T19:46:30.122Z,5.62
2022-11-22T19:48:58.803Z,5.69
2022-11-22T19:51:27.166Z,5.67
2022-11-22T19:53:54.907Z,5.70
2022-11-22T19:56:21.887Z,5.67
2022-11-22T19:58:54.830Z,5.66
2022-11-22T20:01:22.946Z,5.64
2022-11-22T20:03:57.314Z,5.64
2022-11-22T20:06:27.085Z,5.65
2022-11-22T20:08:59.309Z,5.64
2022-11-22T20:11:30.425Z,5.62
2022-11-22T20:13:57.001Z,5.61
2022-11-22T20:16:30.361Z,5.61
2022-11-22T20:19:04.536Z,5.58
2022-11-22T20:21:32.771Z,5.52
2022-11-22T20:24:00.627Z,5.50
2022-11-22T20:26:35.347Z,5.50
2022-11-22T20:29:07.398Z,5.51
2022-11-22T20:31:36.481Z,5.51
2022-11-22T20:34:06.273Z,5.54
2022-11-22T20:36:36.165Z,5.53
2022-11-22T20:39:09.569Z,5.53
2022-11-22T20:41:36.983Z,5.56
2022-11-22T20:44:06.557Z,5.53
2022-11-22T20:46:35.839Z,5.58
2022-11-22T20:49:05.359Z,5.54
2022-11-22T20:51:35.959Z,5.57
2022-11-22T20:54:02.489Z,5.56
2022-11-22T20:56:31.284Z,5.52
2022-11-22T20:59:00.546Z,5.53
2022-11-22T21:01:29.325Z,5.56
2022-11-22T21:03:56.052Z,5.59
2022-11-22T21:06:23.774Z,5.60
2022-11-22T21:08:50.517Z,5.64
2022-11-22T21:11:18.183Z,5.65
2022-11-22T21:13:45.646Z,5.58
2022-11-22T21:16:23.393Z,5.62
2022-11-22T21:19:02.193Z,5.65
2022-11-22T21:21:30.029Z,5.69
2022-11-22T21:23:59.361Z,5.67
2022-11-22T21:26:26.823Z,5.65
2022-11-22T21:28:56.883Z,5.61
2022-11-22T21:31:29.258Z,5.47
2022-11-22T21:33:55.838Z,5.52
2022-11-22T21:36:26.875Z,5.54
2022-11-22T21:38:53.509Z,5.49
2022-11-22T21:44:09.560Z,5.52
2022-11-22T21:46:36.377Z,5.48
2022-11-22T21:49:03.073Z,5.50
2022-11-22T21:51:29.645Z,5.53
2022-11-22T21:54:02.827Z,5.50
2022-11-22T21:56:31.890Z,5.51
2022-11-22T21:59:00.757Z,5.58
2022-11-22T22:01:27.833Z,5.59
2022-11-22T22:03:54.468Z,5.59
2022-11-22T22:06:21.189Z,5.60
2022-11-22T22:08:50.294Z,5.62
2022-11-22T22:11:16.849Z,5.63
2022-11-22T22:13:43.462Z,5.64
2022-11-22T22:16:15.549Z,5.66
2022-11-22T22:18:43.504Z,5.67
2022-11-22T22:21:11.815Z,5.68
2022-11-22T22:23:44.418Z,5.66
2022-11-22T22:26:16.765Z,5.64
2022-11-22T22:28:46.563Z,5.62
2022-11-22T22:31:23.134Z,5.62
2022-11-22T22:33:58.606Z,5.62
2022-11-22T22:36:26.750Z,5.63
2022-11-22T22:38:54.278Z,5.63
2022-11-22T22:41:20.806Z,5.62
2022-11-22T22:43:48.720Z,5.63
2022-11-22T22:46:21.024Z,5.64
2022-11-22T22:48:48.765Z,5.65
2022-11-22T22:51:21.866Z,5.64
2022-11-22T22:53:51.641Z,5.64
2022-11-22T22:56:20.560Z,5.67
2022-11-22T22:58:49.326Z,5.67
2022-11-22T23:01:21.131Z,5.68
2022-11-22T23:03:53.173Z,5.67
2022-11-22T23:06:24.509Z,5.67
2022-11-22T23:08:52.939Z,5.68
2022-11-22T23:11:43.225Z,5.68
2022-11-22T23:14:10.403Z,5.68
2022-11-22T23:16:38.528Z,5.69
2022-11-22T23:19:05.712Z,5.71
2022-11-22T23:21:32.292Z,5.70
2022-11-22T23:23:58.800Z,5.72
2022-11-22T23:26:27.642Z,5.72
2022-11-22T23:28:54.232Z,5.75
2022-11-22T23:31:23.232Z,5.72
2022-11-22T23:33:49.890Z,5.75
2022-11-22T23:36:18.754Z,5.74
2022-11-22T23:38:47.766Z,5.73
2022-11-22T23:41:15.215Z,5.72
2022-11-22T23:43:44.989Z,5.72
2022-11-22T23:46:16.182Z,5.77
2022-11-22T23:48:50.146Z,5.73
2022-11-22T23:51:16.749Z,5.72
2022-11-22T23:53:43.328Z,5.69
2022-11-22T23:56:20.444Z,5.69
2022-11-22T23:58:48.477Z,5.66
